Terminal Aerodrome Forecast
Issued by NWS Twin Cities, MN

Home | Current Version | Previous Version | Graphics & Text | Print | Product List | Glossary On
Versions: 1 2 3 4 5 6 7 8 9 10 11 12 13 14 15
000
FTUS43 KMPX 250520
TAFSTC
TAF
KSTC 250520Z 2506/2606 11009G18KT P6SM OVC020
     FM250800 08008KT P6SM OVC015
     FM251200 09008KT P6SM SCT015 OVC030
     FM251800 08010G16KT P6SM SCT030 OVC050=

USA.gov is the U.S. government's official web portal to all federal, state and local government web resources and services.